Time;durP1;ratioP1;P1;durP2;ratioP2;P2;SDS_P1;SDS_P2;PMS_P1;PMS_P2;Temp;Humidity;BMP_temperature;BMP_pressure;BME280_temperature;BME280_humidity;BME280_pressure;Samples;Min_cycle;Max_cycle;Signal;HPM_P1;HPM_P2
2021/07/09 00:01:46;;;;;;;;;;;16.80;92.50;;;;;;5097786;28;19926;-46
2021/07/09 00:04:14;;;;;;;;;;;16.80;92.60;;;;;;5078953;28;19904;-48
2021/07/09 00:06:39;;;;;;;;;;;17.00;92.50;;;;;;5097041;28;19904;-46
2021/07/09 00:09:06;;;;;;;;;;;17.00;92.60;;;;;;5097450;28;19978;-48
2021/07/09 00:11:32;;;;;;;;;;;17.00;92.10;;;;;;5097057;28;19904;-47
2021/07/09 00:13:57;;;;;;;;;;;17.10;92.00;;;;;;5096985;28;19908;-48
2021/07/09 00:16:23;;;;;;;;;;;17.00;91.90;;;;;;5097082;28;19904;-48
2021/07/09 00:18:49;;;;;;;;;;;17.00;92.10;;;;;;5078661;28;19912;-47
2021/07/09 00:21:15;;;;;;;;;;;17.20;92.30;;;;;;5096778;28;19931;-49
2021/07/09 00:23:41;;;;;;;;;;;17.10;91.60;;;;;;5095294;28;20351;-47
2021/07/09 00:26:07;;;;;;;;;;;17.10;91.50;;;;;;5078542;28;20163;-47
2021/07/09 00:28:32;;;;;;;;;;;17.00;91.90;;;;;;5096530;28;19951;-48
2021/07/09 00:30:58;;;;;;;;;;;16.90;92.50;;;;;;5097044;28;19904;-47
2021/07/09 00:33:24;;;;;;;;;;;16.80;93.10;;;;;;5078463;28;19980;-49
2021/07/09 00:35:49;;;;;;;;;;;16.70;93.30;;;;;;5096458;28;19918;-47
2021/07/09 00:38:15;;;;;;;;;;;16.70;93.50;;;;;;5061597;28;19908;-47
2021/07/09 00:40:41;;;;;;;;;;;16.70;93.70;;;;;;5078264;28;19904;-46
2021/07/09 00:43:06;;;;;;;;;;;16.70;93.70;;;;;;5096332;28;19904;-47
2021/07/09 00:45:32;;;;;;;;;;;16.70;93.50;;;;;;5096239;28;19957;-47
2021/07/09 00:47:58;;;;;;;;;;;16.80;93.10;;;;;;5077919;28;20007;-47
2021/07/09 00:50:23;;;;;;;;;;;16.90;92.60;;;;;;5096612;28;19911;-50
2021/07/09 00:52:49;;;;;;;;;;;16.90;92.50;;;;;;5096424;28;19904;-46
2021/07/09 00:55:14;;;;;;;;;;;17.00;92.60;;;;;;5096091;28;20221;-50
2021/07/09 00:57:41;;;;;;;;;;;17.00;92.20;;;;;;5096379;28;19904;-49
2021/07/09 01:00:07;;;;;;;;;;;17.10;92.20;;;;;;5096078;28;19904;-50
2021/07/09 01:02:33;;;;;;;;;;;16.90;92.60;;;;;;5096102;28;20352;-51
2021/07/09 01:04:58;;;;;;;;;;;16.80;92.70;;;;;;5078334;28;19904;-48
2021/07/09 01:07:24;;;;;;;;;;;16.90;92.90;;;;;;5077645;28;19904;-48
2021/07/09 01:09:50;;;;;;;;;;;16.90;92.70;;;;;;5095542;28;19915;-48
2021/07/09 01:12:17;;;;;;;;;;;17.00;92.70;;;;;;5095956;28;19904;-50
2021/07/09 01:14:46;;;;;;;;;;;17.10;92.50;;;;;;5060901;28;19904;-50
2021/07/09 01:17:26;;;;;;;;;;;;;;;;;;;;;
2021/07/09 01:19:57;;;;;;;;;;;17.00;92.60;;;;;;5095573;28;19918;-48
2021/07/09 01:22:27;;;;;;;;;;;17.10;92.20;;;;;;5095935;28;19994;-49
2021/07/09 01:24:53;;;;;;;;;;;17.10;92.10;;;;;;5095253;28;20266;-48
2021/07/09 01:27:19;;;;;;;;;;;17.00;92.60;;;;;;5095382;28;19990;-49
2021/07/09 01:29:44;;;;;;;;;;;17.00;92.60;;;;;;5095357;28;19908;-47
2021/07/09 01:32:10;;;;;;;;;;;17.10;92.60;;;;;;5095203;28;19904;-47
2021/07/09 01:34:36;;;;;;;;;;;16.90;92.50;;;;;;5094641;28;20352;-47
2021/07/09 01:37:11;;;;;;;;;;;17.00;92.90;;;;;;5095239;28;19908;-47
2021/07/09 01:39:36;;;;;;;;;;;16.80;92.50;;;;;;5095223;28;20413;-48
2021/07/09 01:42:02;;;;;;;;;;;16.80;92.90;;;;;;5095491;28;19903;-47
2021/07/09 01:44:28;;;;;;;;;;;16.70;93.20;;;;;;5095218;28;19991;-48
2021/07/09 01:46:53;;;;;;;;;;;16.70;93.60;;;;;;5095031;28;19926;-49
2021/07/09 01:49:18;;;;;;;;;;;16.80;93.40;;;;;;5095760;28;19912;-47
2021/07/09 01:51:44;;;;;;;;;;;16.80;93.20;;;;;;5095550;28;20252;-52
2021/07/09 01:54:10;;;;;;;;;;;16.80;92.90;;;;;;5060064;28;20044;-48
2021/07/09 01:56:35;;;;;;;;;;;16.80;93.30;;;;;;5076647;28;19950;-51
2021/07/09 01:59:01;;;;;;;;;;;16.80;93.30;;;;;;5094926;28;19903;-51
2021/07/09 02:01:26;;;;;;;;;;;16.80;93.40;;;;;;5094710;28;19904;-48
2021/07/09 02:03:51;;;;;;;;;;;16.80;93.20;;;;;;5094731;28;19951;-47
2021/07/09 02:06:17;;;;;;;;;;;17.10;92.30;;;;;;5094925;28;19915;-47
2021/07/09 02:08:42;;;;;;;;;;;17.00;92.60;;;;;;5094622;28;19908;-50
2021/07/09 02:11:08;;;;;;;;;;;17.00;92.30;;;;;;5094596;28;19904;-48
2021/07/09 02:13:33;;;;;;;;;;;17.00;92.40;;;;;;5094817;28;19904;-49
2021/07/09 02:15:59;;;;;;;;;;;16.90;92.60;;;;;;5094723;28;20343;-46
2021/07/09 02:18:24;;;;;;;;;;;16.90;92.90;;;;;;5094626;28;19904;-47
2021/07/09 02:20:50;;;;;;;;;;;17.00;92.90;;;;;;5094561;28;19904;-47
2021/07/09 02:23:16;;;;;;;;;;;17.00;92.80;;;;;;5076889;28;19910;-49
2021/07/09 02:25:42;;;;;;;;;;;17.00;92.80;;;;;;5095979;28;19910;-48
2021/07/09 02:28:08;;;;;;;;;;;16.90;92.90;;;;;;5094661;28;20325;-49
2021/07/09 02:30:34;;;;;;;;;;;16.90;93.00;;;;;;5094615;28;19908;-52
2021/07/09 02:33:00;;;;;;;;;;;17.00;93.10;;;;;;5094354;28;19959;-49
2021/07/09 02:35:27;;;;;;;;;;;17.00;92.80;;;;;;5094041;28;19912;-48
2021/07/09 02:37:54;;;;;;;;;;;17.00;92.90;;;;;;5095001;28;19904;-49
2021/07/09 02:40:24;;;;;;;;;;;17.00;92.90;;;;;;5094467;28;19904;-47
2021/07/09 02:42:52;;;;;;;;;;;16.90;92.90;;;;;;5094284;28;19904;-48
2021/07/09 02:45:17;;;;;;;;;;;17.00;93.10;;;;;;5093568;28;19939;-46
2021/07/09 02:47:46;;;;;;;;;;;17.30;92.10;;;;;;5094310;28;19904;-50
2021/07/09 02:50:14;;;;;;;;;;;17.10;92.30;;;;;;5094050;28;19911;-48
2021/07/09 02:52:39;;;;;;;;;;;17.00;92.50;;;;;;5094136;28;19904;-49
2021/07/09 02:55:06;;;;;;;;;;;17.00;92.60;;;;;;5094243;28;19972;-54
2021/07/09 02:57:32;;;;;;;;;;;17.00;92.60;;;;;;5075990;28;19926;-50
2021/07/09 02:59:57;;;;;;;;;;;16.80;92.90;;;;;;5075917;28;19908;-48
2021/07/09 03:02:23;;;;;;;;;;;16.60;93.30;;;;;;5094069;28;19903;-45
2021/07/09 03:04:48;;;;;;;;;;;16.60;93.90;;;;;;5093944;28;19904;-51
2021/07/09 03:07:14;;;;;;;;;;;16.50;93.90;;;;;;5093832;28;19904;-47
2021/07/09 03:09:39;;;;;;;;;;;16.80;93.80;;;;;;5093746;28;20014;-47
2021/07/09 03:12:05;;;;;;;;;;;16.80;93.70;;;;;;5093772;28;20279;-50
2021/07/09 03:14:30;;;;;;;;;;;16.80;93.50;;;;;;5093686;28;19911;-47
2021/07/09 03:16:56;;;;;;;;;;;16.90;92.90;;;;;;5093980;28;20344;-48
2021/07/09 03:19:21;;;;;;;;;;;16.90;93.00;;;;;;5093688;28;20413;-46
2021/07/09 03:21:47;;;;;;;;;;;16.90;93.10;;;;;;5093924;28;19908;-49
2021/07/09 03:24:12;;;;;;;;;;;17.00;92.90;;;;;;5093651;28;19904;-50
2021/07/09 03:26:38;;;;;;;;;;;16.90;93.00;;;;;;5093490;28;19950;-47
2021/07/09 03:29:03;;;;;;;;;;;16.80;93.30;;;;;;5075432;28;19915;-47
2021/07/09 03:31:30;;;;;;;;;;;16.80;93.00;;;;;;5075596;28;19904;-48
2021/07/09 03:33:56;;;;;;;;;;;16.80;93.30;;;;;;5093690;28;20453;-46
2021/07/09 03:36:21;;;;;;;;;;;16.80;93.10;;;;;;5093569;28;19915;-46
2021/07/09 03:38:47;;;;;;;;;;;16.80;93.00;;;;;;5093876;28;19908;-47
2021/07/09 03:41:13;;;;;;;;;;;16.80;92.80;;;;;;5058694;28;19904;-46
2021/07/09 03:43:38;;;;;;;;;;;16.70;93.20;;;;;;5093437;28;19991;-47
2021/07/09 03:46:05;;;;;;;;;;;16.60;93.40;;;;;;5093680;28;19992;-47
2021/07/09 03:48:31;;;;;;;;;;;16.60;93.90;;;;;;5093413;28;19908;-46
2021/07/09 03:50:56;;;;;;;;;;;16.50;94.10;;;;;;5093668;28;19912;-46
2021/07/09 03:53:22;;;;;;;;;;;16.70;94.50;;;;;;5093315;28;19904;-46
2021/07/09 03:55:47;;;;;;;;;;;16.60;94.10;;;;;;5093411;28;19908;-46
2021/07/09 03:58:13;;;;;;;;;;;16.70;94.10;;;;;;5096491;28;19907;-46
2021/07/09 04:00:38;;;;;;;;;;;16.80;94.10;;;;;;5097100;28;19912;-47
2021/07/09 04:03:04;;;;;;;;;;;16.70;93.80;;;;;;5097124;28;20342;-47
2021/07/09 04:05:29;;;;;;;;;;;16.70;93.80;;;;;;5097023;28;20351;-47
2021/07/09 04:07:55;;;;;;;;;;;16.80;93.50;;;;;;5097266;28;19912;-48
2021/07/09 04:10:20;;;;;;;;;;;17.00;92.60;;;;;;5096856;28;20038;-47
2021/07/09 04:12:46;;;;;;;;;;;17.00;92.30;;;;;;5096744;28;20343;-47
2021/07/09 04:15:12;;;;;;;;;;;16.80;92.50;;;;;;5078402;28;19917;-48
2021/07/09 04:17:37;;;;;;;;;;;16.80;92.90;;;;;;5096735;28;20271;-46
2021/07/09 04:20:03;;;;;;;;;;;17.10;92.40;;;;;;5096544;28;19939;-47
2021/07/09 04:22:29;;;;;;;;;;;17.10;92.00;;;;;;5097055;28;20415;-46
2021/07/09 04:24:54;;;;;;;;;;;17.00;92.00;;;;;;5078763;28;19943;-48
2021/07/09 04:27:20;;;;;;;;;;;17.10;92.10;;;;;;5096476;28;19911;-46
2021/07/09 04:29:46;;;;;;;;;;;17.10;91.90;;;;;;5095912;28;19919;-48
2021/07/09 04:32:12;;;;;;;;;;;17.00;91.90;;;;;;5096149;28;19907;-47
2021/07/09 04:34:38;;;;;;;;;;;17.10;92.60;;;;;;5095943;28;19916;-47
2021/07/09 04:37:08;;;;;;;;;;;17.20;91.70;;;;;;5095940;28;19908;-47
2021/07/09 04:39:37;;;;;;;;;;;17.30;91.50;;;;;;5095849;28;19908;-45
2021/07/09 04:42:04;;;;;;;;;;;17.30;91.90;;;;;;5096234;28;20349;-47
2021/07/09 04:44:29;;;;;;;;;;;17.00;92.30;;;;;;5096492;28;19911;-47
2021/07/09 04:46:55;;;;;;;;;;;17.10;92.30;;;;;;5078053;28;19904;-47
2021/07/09 04:49:20;;;;;;;;;;;16.90;92.80;;;;;;5096542;28;20006;-46
2021/07/09 04:51:46;;;;;;;;;;;16.90;93.00;;;;;;5096628;28;20002;-49
2021/07/09 04:54:11;;;;;;;;;;;17.10;92.90;;;;;;5097910;28;20415;-36
2021/07/09 04:56:37;;;;;;;;;;;16.90;93.10;;;;;;5096336;28;19914;-36
2021/07/09 04:59:02;;;;;;;;;;;17.00;92.80;;;;;;5095710;28;20380;-36
2021/07/09 05:01:28;;;;;;;;;;;16.90;93.10;;;;;;5096441;28;20348;-36
2021/07/09 05:03:53;;;;;;;;;;;17.10;92.40;;;;;;5095638;28;19904;-36
2021/07/09 05:06:19;;;;;;;;;;;17.10;92.10;;;;;;5095588;28;20389;-36
2021/07/09 05:08:44;;;;;;;;;;;17.20;92.20;;;;;;5094687;28;19908;-36
2021/07/09 05:11:10;;;;;;;;;;;17.10;92.10;;;;;;5095513;28;20284;-36
2021/07/09 05:13:38;;;;;;;;;;;17.10;92.30;;;;;;5095457;28;19910;-37
2021/07/09 05:16:05;;;;;;;;;;;17.10;92.10;;;;;;5095413;28;19904;-36
2021/07/09 05:18:30;;;;;;;;;;;17.30;91.70;;;;;;5077112;28;19911;-36
2021/07/09 05:20:56;;;;;;;;;;;17.30;91.50;;;;;;5095026;28;19904;-36
2021/07/09 05:23:21;;;;;;;;;;;17.30;91.10;;;;;;5095002;28;19927;-36
2021/07/09 05:25:47;;;;;;;;;;;17.30;90.90;;;;;;5095141;28;20328;-36
2021/07/09 05:28:12;;;;;;;;;;;17.40;91.10;;;;;;5076625;28;19908;-37
2021/07/09 05:30:38;;;;;;;;;;;17.40;90.90;;;;;;5095387;28;19904;-36
2021/07/09 05:33:03;;;;;;;;;;;17.50;90.30;;;;;;5094792;28;20348;-36
2021/07/09 05:35:30;;;;;;;;;;;17.50;90.20;;;;;;5094824;28;19923;-36
2021/07/09 05:37:56;;;;;;;;;;;17.60;90.30;;;;;;5095605;28;19908;-36
2021/07/09 05:40:21;;;;;;;;;;;17.60;90.00;;;;;;5095140;28;19911;-36
2021/07/09 05:42:47;;;;;;;;;;;17.50;90.20;;;;;;5077741;28;20002;-36
2021/07/09 05:45:12;;;;;;;;;;;17.60;90.00;;;;;;5095337;28;19946;-36
2021/07/09 05:47:39;;;;;;;;;;;17.40;90.70;;;;;;5096294;28;19904;-37
2021/07/09 05:50:05;;;;;;;;;;;17.30;90.80;;;;;;5095429;28;20398;-37
2021/07/09 05:52:30;;;;;;;;;;;17.60;90.00;;;;;;5095281;28;19904;-37
2021/07/09 05:54:56;;;;;;;;;;;17.70;89.50;;;;;;5095235;28;20370;-38
2021/07/09 05:57:21;;;;;;;;;;;17.70;89.80;;;;;;5094754;28;19949;-37
2021/07/09 05:59:47;;;;;;;;;;;17.70;89.30;;;;;;5095034;28;19957;-36
2021/07/09 06:02:12;;;;;;;;;;;17.80;88.90;;;;;;5095717;28;20237;-37
2021/07/09 06:04:37;;;;;;;;;;;17.80;88.70;;;;;;5095982;28;20272;-42
2021/07/09 06:07:03;;;;;;;;;;;17.90;89.10;;;;;;5098900;28;19908;-38
2021/07/09 06:09:32;;;;;;;;;;;17.90;88.20;;;;;;5098874;28;19912;-38
2021/07/09 06:12:01;;;;;;;;;;;18.20;88.10;;;;;;5100253;28;19908;-38
2021/07/09 06:14:26;;;;;;;;;;;18.30;87.40;;;;;;5081000;28;19926;-38
2021/07/09 06:16:52;;;;;;;;;;;18.30;87.20;;;;;;5095865;28;19903;-37
2021/07/09 06:19:20;;;;;;;;;;;18.40;86.70;;;;;;5098443;28;19911;-39
2021/07/09 06:21:51;;;;;;;;;;;18.50;86.40;;;;;;5099035;28;19926;-40
2021/07/09 06:24:18;;;;;;;;;;;18.80;85.70;;;;;;5081008;28;19978;-37
2021/07/09 06:26:46;;;;;;;;;;;18.80;85.00;;;;;;5082622;28;19951;-42
2021/07/09 06:29:12;;;;;;;;;;;19.00;83.70;;;;;;5078665;28;20266;-37
2021/07/09 06:31:38;;;;;;;;;;;18.90;84.30;;;;;;5081631;28;19904;-37
2021/07/09 06:34:03;;;;;;;;;;;18.80;84.70;;;;;;5095339;28;19912;-38
2021/07/09 06:36:29;;;;;;;;;;;18.70;85.40;;;;;;5076970;28;19904;-37
2021/07/09 06:38:54;;;;;;;;;;;18.90;84.40;;;;;;5075627;28;19995;-37
2021/07/09 06:41:20;;;;;;;;;;;18.90;85.00;;;;;;5075679;28;19912;-37
2021/07/09 06:43:45;;;;;;;;;;;18.70;86.10;;;;;;5093907;28;19904;-38
2021/07/09 06:46:11;;;;;;;;;;;18.70;86.00;;;;;;5093291;28;19904;-37
2021/07/09 06:48:37;;;;;;;;;;;18.90;85.70;;;;;;5075318;28;19916;-37
2021/07/09 06:51:02;;;;;;;;;;;18.90;85.00;;;;;;5093568;28;20378;-38
2021/07/09 06:53:28;;;;;;;;;;;18.70;85.90;;;;;;5075023;28;19954;-37
2021/07/09 06:55:53;;;;;;;;;;;18.80;85.80;;;;;;5075402;28;19911;-37
2021/07/09 06:58:19;;;;;;;;;;;18.90;85.20;;;;;;5075214;28;20258;-37
2021/07/09 07:00:45;;;;;;;;;;;18.90;84.40;;;;;;5093644;28;19908;-37
2021/07/09 07:03:10;;;;;;;;;;;19.10;83.00;;;;;;5093486;28;19911;-38
2021/07/09 07:05:36;;;;;;;;;;;18.80;84.10;;;;;;5093686;28;20245;-38
2021/07/09 07:08:18;;;;;;;;;;;18.90;84.00;;;;;;5093366;28;19919;-37
2021/07/09 07:10:44;;;;;;;;;;;18.80;84.60;;;;;;5093402;28;19950;-37
2021/07/09 07:13:09;;;;;;;;;;;18.90;84.20;;;;;;5094634;28;20411;-38
2021/07/09 07:15:35;;;;;;;;;;;18.90;83.80;;;;;;5094090;28;19950;-37
2021/07/09 07:18:02;;;;;;;;;;;18.80;85.10;;;;;;5093387;28;19904;-38
2021/07/09 07:20:29;;;;;;;;;;;18.80;85.00;;;;;;5075471;28;19904;-37
2021/07/09 07:22:54;;;;;;;;;;;19.20;84.70;;;;;;5093893;28;20007;-37
2021/07/09 07:25:20;;;;;;;;;;;19.00;83.90;;;;;;5093633;28;20340;-37
2021/07/09 07:27:45;;;;;;;;;;;19.10;84.30;;;;;;5093079;28;19929;-37
2021/07/09 07:30:12;;;;;;;;;;;19.00;84.40;;;;;;5074913;28;19927;-37
2021/07/09 07:32:41;;;;;;;;;;;19.30;83.60;;;;;;5096120;28;19965;-37
2021/07/09 07:35:07;;;;;;;;;;;19.20;83.20;;;;;;5078700;28;20393;-37
2021/07/09 07:37:32;;;;;;;;;;;19.30;82.90;;;;;;5096941;28;19987;-37
2021/07/09 07:39:58;;;;;;;;;;;19.20;83.60;;;;;;5096903;28;19926;-38
2021/07/09 07:42:23;;;;;;;;;;;19.50;83.60;;;;;;5096948;28;19912;-36
2021/07/09 07:44:49;;;;;;;;;;;19.80;81.30;;;;;;5078684;28;19904;-38
2021/07/09 07:47:17;;;;;;;;;;;19.90;77.70;;;;;;5097107;28;20351;-36
2021/07/09 07:49:42;;;;;;;;;;;19.90;78.00;;;;;;5097575;28;19908;-36
2021/07/09 07:52:08;;;;;;;;;;;19.60;79.30;;;;;;5096711;28;19904;-37
2021/07/09 07:54:33;;;;;;;;;;;19.60;79.80;;;;;;5096809;28;19908;-37
2021/07/09 07:57:01;;;;;;;;;;;19.30;81.20;;;;;;5096845;28;19953;-37
2021/07/09 07:59:27;;;;;;;;;;;19.40;80.90;;;;;;5097774;28;19972;-37
2021/07/09 08:01:52;;;;;;;;;;;19.80;79.90;;;;;;5095712;28;19995;-38
2021/07/09 08:04:18;;;;;;;;;;;20.00;78.50;;;;;;5096983;28;19954;-37
2021/07/09 08:06:43;;;;;;;;;;;20.10;77.80;;;;;;5096465;28;20004;-37
2021/07/09 08:09:09;;;;;;;;;;;20.00;78.30;;;;;;5096517;28;20250;-38
2021/07/09 08:11:34;;;;;;;;;;;20.20;77.70;;;;;;5097327;28;19904;-37
2021/07/09 08:14:00;;;;;;;;;;;20.00;78.60;;;;;;5096702;28;19923;-37
2021/07/09 08:16:26;;;;;;;;;;;20.30;78.20;;;;;;5096194;28;19953;-39
2021/07/09 08:18:51;;;;;;;;;;;20.80;74.90;;;;;;5096510;28;19943;-37
2021/07/09 08:21:17;;;;;;;;;;;20.90;75.20;;;;;;5078325;28;19987;-39
2021/07/09 08:23:43;;;;;;;;;;;21.20;73.90;;;;;;5077778;28;19904;-37
2021/07/09 08:26:08;;;;;;;;;;;20.40;75.50;;;;;;5077782;28;19904;-38
2021/07/09 08:28:34;;;;;;;;;;;20.40;76.00;;;;;;5096030;28;19934;-37
2021/07/09 08:31:00;;;;;;;;;;;20.80;75.80;;;;;;5096521;28;20002;-38
2021/07/09 08:33:25;;;;;;;;;;;21.30;73.50;;;;;;5096017;28;19915;-36
2021/07/09 08:35:51;;;;;;;;;;;21.50;72.70;;;;;;5096230;28;20320;-37
2021/07/09 08:38:17;;;;;;;;;;;21.80;71.20;;;;;;5078184;28;19938;-37
2021/07/09 08:40:43;;;;;;;;;;;20.80;75.10;;;;;;5095542;28;19926;-36
2021/07/09 08:43:09;;;;;;;;;;;21.70;72.20;;;;;;5094883;28;20000;-38
2021/07/09 08:45:35;;;;;;;;;;;22.10;70.80;;;;;;5078126;28;19914;-40
2021/07/09 08:48:01;;;;;;;;;;;22.00;71.50;;;;;;5096512;28;19904;-36
2021/07/09 08:50:26;;;;;;;;;;;22.20;70.30;;;;;;5078673;28;19951;-48
2021/07/09 08:52:52;;;;;;;;;;;21.90;69.60;;;;;;5096113;28;20255;-47
2021/07/09 08:55:18;;;;;;;;;;;22.00;69.40;;;;;;5095850;28;19904;-51
2021/07/09 08:57:44;;;;;;;;;;;22.10;69.50;;;;;;5096068;28;19998;-48
2021/07/09 09:00:29;;;;;;;;;;;22.70;67.30;;;;;;5098008;28;19990;-49
2021/07/09 09:02:54;;;;;;;;;;;22.50;67.00;;;;;;5079076;28;20427;-49
2021/07/09 09:05:24;;;;;;;;;;;22.30;68.80;;;;;;5096216;28;19999;-49
2021/07/09 09:08:03;;;;;;;;;;;22.50;66.80;;;;;;5095637;28;19954;-47
2021/07/09 09:10:32;;;;;;;;;;;22.70;65.60;;;;;;5095535;28;20332;-49
2021/07/09 09:13:05;;;;;;;;;;;23.30;63.40;;;;;;5096048;28;20078;-49
2021/07/09 09:15:31;;;;;;;;;;;24.00;61.00;;;;;;5060627;28;19939;-49
2021/07/09 09:17:56;;;;;;;;;;;23.70;62.20;;;;;;5077660;28;19944;-50
2021/07/09 09:20:22;;;;;;;;;;;23.50;61.10;;;;;;5096422;28;19905;-52
2021/07/09 09:22:48;;;;;;;;;;;24.20;58.90;;;;;;5096646;28;19904;-49
2021/07/09 09:25:14;;;;;;;;;;;23.80;59.00;;;;;;5095447;28;19986;-50
2021/07/09 09:27:39;;;;;;;;;;;24.30;57.70;;;;;;5095298;28;19955;-50
2021/07/09 09:30:16;;;;;;;;;;;24.30;57.60;;;;;;5095054;28;20367;-48
2021/07/09 09:32:45;;;;;;;;;;;23.60;59.30;;;;;;5095322;28;19904;-49
2021/07/09 09:35:11;;;;;;;;;;;24.00;58.30;;;;;;5094757;28;20324;-49
2021/07/09 09:37:48;;;;;;;;;;;25.00;55.00;;;;;;5095345;28;20056;-48
2021/07/09 09:40:17;;;;;;;;;;;24.20;56.00;;;;;;5095028;28;20021;-49
2021/07/09 09:42:43;;;;;;;;;;;24.50;56.80;;;;;;5076639;28;19904;-48
2021/07/09 09:45:09;;;;;;;;;;;24.80;57.00;;;;;;5094906;28;19910;-49
2021/07/09 09:47:36;;;;;;;;;;;25.40;52.30;;;;;;5094675;28;19911;-49
2021/07/09 09:50:06;;;;;;;;;;;25.90;50.60;;;;;;5095158;28;19909;-48
2021/07/09 09:52:35;;;;;;;;;;;26.70;48.10;;;;;;5077135;28;19908;-53
2021/07/09 09:55:03;;;;;;;;;;;26.00;50.80;;;;;;5095464;28;19904;-47
2021/07/09 09:57:28;;;;;;;;;;;25.00;52.70;;;;;;5094644;28;19919;-52
2021/07/09 09:59:54;;;;;;;;;;;25.20;51.30;;;;;;5076069;28;19904;-47
2021/07/09 10:02:21;;;;;;;;;;;25.80;49.70;;;;;;5076326;28;19930;-48
2021/07/09 10:04:46;;;;;;;;;;;26.30;48.50;;;;;;5094964;28;20344;-52
2021/07/09 10:07:12;;;;;;;;;;;26.70;48.20;;;;;;5094710;28;19948;-48
2021/07/09 10:09:39;;;;;;;;;;;26.00;49.50;;;;;;5095764;28;19918;-48
2021/07/09 10:12:05;;;;;;;;;;;26.10;49.50;;;;;;5077158;28;20053;-48
2021/07/09 10:14:32;;;;;;;;;;;26.60;47.30;;;;;;5094772;28;19946;-48
2021/07/09 10:16:59;;;;;;;;;;;26.00;48.20;;;;;;5094298;28;19915;-48
2021/07/09 10:19:26;;;;;;;;;;;26.30;45.40;;;;;;5094638;28;19911;-48
2021/07/09 10:21:52;;;;;;;;;;;26.30;44.90;;;;;;5094163;28;19910;-50
2021/07/09 10:24:18;;;;;;;;;;;25.20;47.40;;;;;;5075667;28;19908;-47
2021/07/09 10:26:44;;;;;;;;;;;24.40;49.90;;;;;;5093799;28;19961;-47
2021/07/09 10:29:14;;;;;;;;;;;25.80;47.40;;;;;;5094505;28;19920;-48
2021/07/09 10:31:40;;;;;;;;;;;26.60;44.90;;;;;;5093701;28;19904;-48
2021/07/09 10:34:34;;;;;;;;;;;27.50;42.90;;;;;;5068234;28;19939;-49
2021/07/09 10:37:01;;;;;;;;;;;26.80;44.70;;;;;;5048360;28;20364;-47
2021/07/09 10:39:41;;;;;;;;;;;26.00;46.40;;;;;;5052483;28;19911;-51
2021/07/09 10:42:12;;;;;;;;;;;26.10;46.70;;;;;;5053504;28;19904;-48
2021/07/09 10:44:38;;;;;;;;;;;26.20;45.90;;;;;;5053437;28;19909;-49
2021/07/09 10:47:16;;;;;;;;;;;25.60;47.60;;;;;;5055045;28;19931;-51
2021/07/09 10:49:51;;;;;;;;;;;26.20;46.10;;;;;;5053116;28;19915;-48
2021/07/09 10:52:35;;;;;;;;;;;25.70;45.10;;;;;;5051692;28;20309;-49
2021/07/09 10:55:00;;;;;;;;;;;25.30;47.90;;;;;;5052963;28;19959;-52
2021/07/09 10:57:26;;;;;;;;;;;24.30;51.00;;;;;;5053320;28;19905;-49
2021/07/09 11:00:10;;;;;;;;;;;24.00;52.20;;;;;;5052830;28;19905;-52
2021/07/09 11:02:54;;;;;;;;;;;23.80;52.80;;;;;;5052827;28;20280;-49
2021/07/09 11:05:38;;;;;;;;;;;23.70;52.00;;;;;;5051786;28;19911;-51
2021/07/09 11:08:22;;;;;;;;;;;23.70;52.20;;;;;;5052532;28;19915;-51
2021/07/09 11:10:58;;;;;;;;;;;24.10;51.30;;;;;;5053193;28;20007;-48
2021/07/09 11:13:42;;;;;;;;;;;25.80;47.00;;;;;;5053846;28;19905;-48
2021/07/09 11:16:17;;;;;;;;;;;26.00;45.10;;;;;;5054098;28;19908;-49
2021/07/09 11:18:45;;;;;;;;;;;26.80;43.00;;;;;;5053375;28;19912;-50
2021/07/09 11:21:10;;;;;;;;;;;27.30;42.10;;;;;;5053697;28;20352;-48
2021/07/09 11:23:36;;;;;;;;;;;25.90;45.00;;;;;;5053328;28;19911;-50
2021/07/09 11:26:08;;;;;;;;;;;26.10;44.90;;;;;;5052966;28;19905;-50
2021/07/09 11:28:33;;;;;;;;;;;27.10;42.30;;;;;;5052577;28;19913;-52
2021/07/09 11:30:59;;;;;;;;;;;27.30;41.80;;;;;;5052587;28;19927;-50
2021/07/09 11:33:24;;;;;;;;;;;26.50;44.10;;;;;;5053002;28;19905;-50
2021/07/09 11:35:50;;;;;;;;;;;26.80;43.60;;;;;;5051314;28;19916;-49
2021/07/09 11:38:15;;;;;;;;;;;26.40;43.20;;;;;;5051697;28;19905;-50
2021/07/09 11:40:41;;;;;;;;;;;26.80;41.60;;;;;;5053492;28;20383;-49
2021/07/09 11:43:07;;;;;;;;;;;27.60;40.10;;;;;;5053003;28;19912;-53
2021/07/09 11:45:32;;;;;;;;;;;27.60;40.40;;;;;;5052278;28;19908;-50
2021/07/09 11:48:00;;;;;;;;;;;28.30;39.30;;;;;;5053085;28;19905;-49
2021/07/09 11:50:26;;;;;;;;;;;26.80;42.50;;;;;;5051193;28;19905;-48
2021/07/09 11:52:53;;;;;;;;;;;27.00;41.90;;;;;;5051249;28;20378;-48
2021/07/09 11:55:21;;;;;;;;;;;27.20;40.50;;;;;;5052723;28;19912;-51
2021/07/09 11:57:47;;;;;;;;;;;27.30;39.00;;;;;;5052696;28;20047;-47
2021/07/09 12:00:14;;;;;;;;;;;28.00;38.60;;;;;;5052621;28;19942;-47
2021/07/09 12:02:39;;;;;;;;;;;28.00;39.20;;;;;;5051277;28;19905;-47
2021/07/09 12:05:06;;;;;;;;;;;27.30;40.10;;;;;;5052668;28;20249;-47
2021/07/09 12:07:35;;;;;;;;;;;26.70;42.80;;;;;;5051597;28;20323;-49
2021/07/09 12:10:04;;;;;;;;;;;26.80;41.60;;;;;;5052349;28;19909;-49
2021/07/09 12:12:32;;;;;;;;;;;27.00;39.50;;;;;;5052680;28;19911;-51
2021/07/09 12:15:00;;;;;;;;;;;28.20;37.80;;;;;;5052456;28;19963;-52
2021/07/09 12:17:27;;;;;;;;;;;27.20;39.90;;;;;;5052705;28;19927;-52
2021/07/09 12:19:57;;;;;;;;;;;27.00;41.20;;;;;;5055864;28;19904;-51
2021/07/09 12:22:25;;;;;;;;;;;27.70;40.40;;;;;;5056069;28;19959;-50
2021/07/09 12:24:52;;;;;;;;;;;27.50;39.70;;;;;;5056094;28;19974;-49
2021/07/09 12:27:18;;;;;;;;;;;26.80;40.60;;;;;;5055757;28;19952;-50
2021/07/09 12:29:44;;;;;;;;;;;27.20;40.50;;;;;;5055814;28;20348;-51
2021/07/09 12:32:09;;;;;;;;;;;27.50;39.60;;;;;;5056046;28;19904;-49
2021/07/09 12:34:35;;;;;;;;;;;26.80;39.80;;;;;;5071230;28;19943;-50
2021/07/09 12:37:01;;;;;;;;;;;27.80;37.60;;;;;;5095900;28;20002;-47
2021/07/09 12:39:27;;;;;;;;;;;28.50;37.00;;;;;;5095969;28;20228;-49
2021/07/09 12:41:53;;;;;;;;;;;28.60;36.00;;;;;;5096163;28;19911;-50
2021/07/09 12:44:19;;;;;;;;;;;28.80;36.20;;;;;;5095727;28;19912;-50
2021/07/09 12:46:44;;;;;;;;;;;28.40;37.30;;;;;;5095777;28;20397;-50
2021/07/09 12:49:10;;;;;;;;;;;28.40;36.90;;;;;;5095437;28;19996;-48
2021/07/09 12:51:41;;;;;;;;;;;27.50;39.40;;;;;;5095631;28;20229;-50
2021/07/09 12:54:14;;;;;;;;;;;26.80;41.30;;;;;;5095809;28;19977;-48
2021/07/09 12:56:44;;;;;;;;;;;27.00;41.40;;;;;;5077891;28;19999;-49
2021/07/09 12:59:16;;;;;;;;;;;28.00;38.40;;;;;;5095441;28;20194;-52
2021/07/09 13:01:42;;;;;;;;;;;28.00;38.60;;;;;;5077103;28;19904;-52
2021/07/09 13:04:25;;;;;;;;;;;27.00;40.90;;;;;;5077703;28;19915;-50
2021/07/09 13:07:03;;;;;;;;;;;27.30;39.90;;;;;;5095377;28;20354;-50
2021/07/09 13:09:32;;;;;;;;;;;27.40;40.00;;;;;;5095824;28;19919;-50
2021/07/09 13:12:09;;;;;;;;;;;27.10;40.90;;;;;;5096307;28;19962;-53
2021/07/09 13:14:36;;;;;;;;;;;26.80;42.90;;;;;;5095678;28;19904;-49
2021/07/09 13:17:02;;;;;;;;;;;26.50;42.50;;;;;;5095229;28;20375;-51
2021/07/09 13:19:34;;;;;;;;;;;26.60;43.10;;;;;;5095612;28;19908;-49
2021/07/09 13:22:01;;;;;;;;;;;27.00;42.30;;;;;;5095009;28;19910;-51
2021/07/09 13:24:30;;;;;;;;;;;27.00;40.30;;;;;;5094919;28;19904;-53
2021/07/09 13:26:56;;;;;;;;;;;26.90;40.60;;;;;;5095161;28;19954;-49
2021/07/09 13:29:26;;;;;;;;;;;27.50;39.10;;;;;;5094232;28;20347;-52
2021/07/09 13:31:52;;;;;;;;;;;28.20;39.00;;;;;;5094952;28;19926;-48
2021/07/09 13:34:18;;;;;;;;;;;27.20;41.50;;;;;;5094933;28;19926;-50
2021/07/09 13:36:44;;;;;;;;;;;26.30;44.40;;;;;;5095539;28;19904;-50
2021/07/09 13:39:10;;;;;;;;;;;27.30;43.10;;;;;;5095175;28;19904;-49
2021/07/09 13:41:36;;;;;;;;;;;26.50;43.40;;;;;;5095783;28;20352;-52
2021/07/09 13:44:01;;;;;;;;;;;26.10;43.40;;;;;;5076465;28;20370;-52
2021/07/09 13:46:27;;;;;;;;;;;25.60;43.20;;;;;;5094367;28;19951;-52
2021/07/09 13:48:53;;;;;;;;;;;26.40;42.40;;;;;;5094089;28;19908;-50
2021/07/09 13:51:18;;;;;;;;;;;28.00;40.10;;;;;;5075992;28;19904;-51
2021/07/09 13:53:47;;;;;;;;;;;28.80;38.10;;;;;;5094261;28;19904;-48
2021/07/09 13:56:13;;;;;;;;;;;29.00;36.90;;;;;;5094535;28;19998;-55
2021/07/09 13:58:38;;;;;;;;;;;28.00;38.70;;;;;;5094488;28;19947;-51
2021/07/09 14:01:07;;;;;;;;;;;27.00;40.10;;;;;;5094597;28;20401;-49
2021/07/09 14:03:33;;;;;;;;;;;26.30;42.80;;;;;;5076204;28;19908;-48
2021/07/09 14:05:59;;;;;;;;;;;26.40;43.20;;;;;;5076901;28;19904;-51
2021/07/09 14:08:25;;;;;;;;;;;27.20;42.60;;;;;;5080393;28;19908;-51
2021/07/09 14:10:55;;;;;;;;;;;26.40;44.50;;;;;;5095652;28;20344;-50
2021/07/09 14:13:24;;;;;;;;;;;25.20;47.40;;;;;;5095311;28;19911;-48
2021/07/09 14:15:50;;;;;;;;;;;24.70;47.70;;;;;;5095422;28;19904;-52
2021/07/09 14:18:16;;;;;;;;;;;24.50;48.20;;;;;;5094856;28;19910;-52